createdAt,value
2023-05-23T00:04:38.141Z,6.60
2023-05-23T00:09:31.427Z,6.50
2023-05-23T00:14:25.026Z,8.00
2023-05-23T00:19:18.014Z,6.80
2023-05-23T00:24:11.218Z,6.60
2023-05-23T00:29:05.340Z,7.00
2023-05-23T00:33:58.280Z,7.70
2023-05-23T00:38:51.150Z,6.80
2023-05-23T00:43:44.813Z,7.80
2023-05-23T00:48:38.800Z,6.80
2023-05-23T00:53:32.032Z,7.20
2023-05-23T00:58:26.278Z,7.40
2023-05-23T01:03:20.200Z,7.00
2023-05-23T01:08:16.066Z,6.90
2023-05-23T01:13:49.682Z,7.20
2023-05-23T01:18:50.639Z,7.20
2023-05-23T01:24:09.919Z,7.80
2023-05-23T01:29:10.703Z,6.70
2023-05-23T01:34:03.952Z,8.10
2023-05-23T01:38:56.890Z,7.20
2023-05-23T01:43:49.902Z,7.10
2023-05-23T01:48:43.884Z,7.40
2023-05-23T01:53:37.617Z,7.00
2023-05-23T01:58:31.174Z,7.60
2023-05-23T02:03:24.290Z,7.10
2023-05-23T02:08:17.463Z,6.60
2023-05-23T02:13:10.434Z,7.40
2023-05-23T02:18:03.403Z,7.70
2023-05-23T02:22:57.096Z,7.50
2023-05-23T02:27:49.961Z,7.20
2023-05-23T02:32:42.854Z,7.30
2023-05-23T02:37:35.736Z,7.30
2023-05-23T02:42:30.879Z,7.10
2023-05-23T02:47:23.853Z,7.20
2023-05-23T02:52:17.163Z,7.10
2023-05-23T02:57:10.564Z,6.80
2023-05-23T03:02:04.963Z,7.10
2023-05-23T03:06:59.901Z,6.60
2023-05-23T03:11:52.922Z,6.50
2023-05-23T03:16:46.563Z,6.30
2023-05-23T03:21:40.260Z,6.70
2023-05-23T03:26:33.770Z,7.40
2023-05-23T03:31:26.918Z,6.70
2023-05-23T03:36:19.986Z,6.90
2023-05-23T03:41:13.102Z,6.80
2023-05-23T03:46:06.376Z,6.90
2023-05-23T03:50:59.511Z,6.50
2023-05-23T03:55:54.309Z,7.80
2023-05-23T04:00:47.895Z,6.80
2023-05-23T04:05:41.966Z,6.90
2023-05-23T04:10:36.432Z,8.40
2023-05-23T04:15:30.020Z,7.40
2023-05-23T04:20:26.170Z,6.50
2023-05-23T04:25:20.833Z,6.10
2023-05-23T04:30:25.063Z,6.40
2023-05-23T04:35:18.270Z,6.40
2023-05-23T04:40:13.628Z,5.50
2023-05-23T04:45:14.021Z,6.70
2023-05-23T04:50:25.062Z,6.00
2023-05-23T04:55:18.211Z,5.70
2023-05-23T05:00:12.976Z,5.90
2023-05-23T05:05:07.490Z,6.00
2023-05-23T05:10:01.345Z,5.70
2023-05-23T05:14:55.441Z,7.90
2023-05-23T05:19:49.139Z,5.70
2023-05-23T05:24:43.684Z,6.40
2023-05-23T05:29:37.644Z,4.90
2023-05-23T05:34:31.069Z,4.90
2023-05-23T05:39:27.004Z,5.80
2023-05-23T05:44:21.219Z,4.70
2023-05-23T05:49:14.399Z,4.70
2023-05-23T05:54:08.429Z,4.90
2023-05-23T05:59:01.558Z,4.30
2023-05-23T06:03:55.257Z,4.20
2023-05-23T06:08:48.905Z,4.20
2023-05-23T06:13:42.757Z,4.00
2023-05-23T06:18:35.858Z,3.60
2023-05-23T06:23:29.415Z,4.00
2023-05-23T06:28:22.484Z,4.30
2023-05-23T06:33:16.430Z,2.90
2023-05-23T06:38:09.625Z,3.50
2023-05-23T06:43:02.464Z,2.90
2023-05-23T06:48:06.116Z,3.00
2023-05-23T06:52:59.757Z,2.80
2023-05-23T06:57:52.690Z,2.90
2023-05-23T07:02:48.838Z,3.50
2023-05-23T07:07:44.862Z,3.10
2023-05-23T07:12:37.822Z,3.20
2023-05-23T07:17:31.596Z,2.80
2023-05-23T07:22:24.556Z,3.00
2023-05-23T07:27:18.589Z,2.90
2023-05-23T07:32:12.071Z,2.60
2023-05-23T07:37:05.237Z,3.20
2023-05-23T07:42:04.511Z,4.30
2023-05-23T07:46:58.049Z,2.80
2023-05-23T07:51:51.633Z,2.70
2023-05-23T07:56:45.344Z,3.00
2023-05-23T08:01:38.912Z,3.40
2023-05-23T08:06:33.806Z,2.70
2023-05-23T08:11:30.574Z,2.70
2023-05-23T08:16:23.854Z,2.80
2023-05-23T08:21:17.980Z,2.60
2023-05-23T08:26:11.343Z,2.90
2023-05-23T08:31:04.922Z,2.20
2023-05-23T08:35:57.937Z,2.40
2023-05-23T08:40:52.702Z,2.90
2023-05-23T08:45:47.059Z,2.40
2023-05-23T08:50:43.383Z,2.50
2023-05-23T08:55:38.790Z,2.50
2023-05-23T09:00:33.124Z,2.40
2023-05-23T09:05:27.839Z,2.30
2023-05-23T09:15:17.527Z,2.40
2023-05-23T09:20:16.038Z,2.90
2023-05-23T09:25:14.810Z,2.90
2023-05-23T09:30:10.271Z,2.30
2023-05-23T09:35:05.504Z,2.60
2023-05-23T09:40:00.816Z,2.40
2023-05-23T09:44:55.187Z,2.70
2023-05-23T09:49:48.344Z,2.30
2023-05-23T09:54:42.005Z,2.70
2023-05-23T09:59:36.444Z,2.10
2023-05-23T10:04:32.950Z,2.60
2023-05-23T10:09:28.335Z,2.50
2023-05-23T10:14:21.319Z,2.70
2023-05-23T10:19:43.658Z,2.60
2023-05-23T10:24:37.741Z,2.70
2023-05-23T10:29:31.216Z,2.60
2023-05-23T10:34:52.443Z,2.30
2023-05-23T10:39:51.346Z,2.60
2023-05-23T10:44:44.460Z,2.70
2023-05-23T10:49:45.176Z,2.30
2023-05-23T10:54:44.139Z,2.90
2023-05-23T10:59:39.721Z,3.20
2023-05-23T11:04:32.578Z,2.70
2023-05-23T11:09:25.598Z,2.40
2023-05-23T11:14:18.503Z,3.10
2023-05-23T11:19:20.474Z,2.60
2023-05-23T11:24:13.922Z,2.20
2023-05-23T11:29:10.884Z,2.70
2023-05-23T11:34:03.909Z,2.60
2023-05-23T11:38:57.949Z,2.70
2023-05-23T11:43:52.638Z,3.20
2023-05-23T11:48:51.019Z,2.80
2023-05-23T11:53:44.906Z,3.10
2023-05-23T11:58:40.266Z,3.10
2023-05-23T12:03:34.120Z,2.80
2023-05-23T12:08:27.265Z,3.00
2023-05-23T12:13:21.448Z,2.90
2023-05-23T12:18:14.674Z,3.00
2023-05-23T12:23:07.678Z,3.30
2023-05-23T12:28:01.628Z,3.40
2023-05-23T12:32:55.225Z,2.90
2023-05-23T12:37:48.685Z,3.00
2023-05-23T12:42:54.484Z,3.00
2023-05-23T12:47:56.237Z,2.60
2023-05-23T12:52:49.805Z,3.00
2023-05-23T13:03:56.072Z,2.90
2023-05-23T13:09:22.515Z,3.20
2023-05-23T13:14:24.718Z,3.20
2023-05-23T13:19:21.033Z,2.90
2023-05-23T13:24:19.361Z,2.90
2023-05-23T13:29:12.566Z,2.90
2023-05-23T13:34:07.307Z,3.10
2023-05-23T13:39:18.134Z,2.90
2023-05-23T13:44:20.668Z,3.40
2023-05-23T13:49:24.740Z,3.10
2023-05-23T13:54:34.545Z,3.50
2023-05-23T13:59:56.638Z,3.50
2023-05-23T14:06:01.381Z,3.50
2023-05-23T15:02:22.666Z,3.60
2023-05-23T15:09:51.319Z,4.20
2023-05-23T15:35:04.328Z,3.90
2023-05-23T15:40:41.596Z,3.60
2023-05-23T15:53:14.517Z,4.00
2023-05-23T16:20:04.231Z,3.60
2023-05-23T16:32:24.097Z,4.00
2023-05-23T17:07:00.382Z,4.00
2023-05-23T18:14:10.950Z,4.30
2023-05-23T18:57:05.044Z,5.10
2023-05-23T19:01:58.693Z,5.40
2023-05-23T19:06:50.835Z,5.50
2023-05-23T19:11:42.331Z,5.60
2023-05-23T19:16:35.659Z,6.00
2023-05-23T19:21:27.743Z,6.60
2023-05-23T19:26:20.980Z,6.80
2023-05-23T19:31:13.559Z,8.20
2023-05-23T19:36:09.266Z,7.00
2023-05-23T19:41:14.400Z,7.00
2023-05-23T19:46:08.377Z,8.40
2023-05-23T19:51:00.374Z,7.20
2023-05-23T20:17:10.521Z,8.40
2023-05-23T20:23:03.048Z,8.40
2023-05-23T20:35:29.617Z,9.00
2023-05-23T20:40:43.513Z,8.80
2023-05-23T20:45:37.673Z,9.20
2023-05-23T20:50:32.124Z,8.30
2023-05-23T20:55:35.837Z,9.30
2023-05-23T21:00:29.305Z,9.00
2023-05-23T21:05:20.849Z,8.80
2023-05-23T21:10:12.475Z,8.60
2023-05-23T21:15:09.192Z,8.80
2023-05-23T21:20:00.683Z,9.40
2023-05-23T21:24:52.296Z,8.40
2023-05-23T21:29:46.206Z,8.90
2023-05-23T21:34:37.721Z,8.50
2023-05-23T21:39:47.004Z,9.10
2023-05-23T21:44:41.928Z,8.10
2023-05-23T21:49:34.786Z,9.00
2023-05-23T21:54:30.590Z,8.70
2023-05-23T21:59:24.591Z,8.30
2023-05-23T22:04:18.539Z,8.10
2023-05-23T22:09:13.664Z,8.80
2023-05-23T22:14:09.286Z,8.50
2023-05-23T22:19:18.859Z,8.10
2023-05-23T22:24:13.873Z,8.30
2023-05-23T22:29:19.883Z,8.30
2023-05-23T22:34:17.884Z,8.90
2023-05-23T22:39:20.509Z,8.50
2023-05-23T22:44:12.859Z,8.70
2023-05-23T22:49:31.126Z,8.50
2023-05-23T22:55:03.046Z,9.20
2023-05-23T23:00:15.380Z,8.10
2023-05-23T23:05:12.024Z,8.10
2023-05-23T23:10:11.517Z,8.20
2023-05-23T23:21:08.252Z,7.50
2023-05-23T23:25:59.623Z,7.80
2023-05-23T23:30:51.979Z,8.40
2023-05-23T23:35:45.857Z,6.70
2023-05-23T23:40:37.406Z,7.10
2023-05-23T23:45:28.970Z,7.10
2023-05-23T23:50:21.885Z,7.20
2023-05-23T23:55:15.254Z,7.40
